createdAt,value
2022-08-17T00:01:51.398Z,75.78
2022-08-17T00:04:40.794Z,76.27
2022-08-17T00:07:22.016Z,75.87
2022-08-17T00:10:11.983Z,75.69
2022-08-17T00:13:00.027Z,75.55
2022-08-17T00:15:40.816Z,75.44
2022-08-17T00:19:06.830Z,75.50
2022-08-17T00:22:10.612Z,76.02
2022-08-17T00:24:40.009Z,75.89
2022-08-17T00:27:22.804Z,75.89
2022-08-17T00:30:06.535Z,75.98
2022-08-17T00:33:13.691Z,75.94
2022-08-17T00:35:59.929Z,76.26
2022-08-17T00:38:48.783Z,76.30
2022-08-17T00:41:36.987Z,76.35
2022-08-17T00:44:24.741Z,76.49
2022-08-17T00:47:17.765Z,76.65
2022-08-17T00:49:58.972Z,77.02
2022-08-17T00:52:53.744Z,76.91
2022-08-17T00:55:35.942Z,76.99
2022-08-17T00:58:30.441Z,77.05
2022-08-17T01:01:26.783Z,77.22
2022-08-17T01:04:15.928Z,77.15
2022-08-17T01:06:58.795Z,77.46
2022-08-17T01:09:47.755Z,77.51
2022-08-17T01:12:43.795Z,77.54
2022-08-17T01:15:32.711Z,77.64
2022-08-17T01:18:17.925Z,77.75
2022-08-17T01:21:14.790Z,77.65
2022-08-17T01:23:57.898Z,77.51
2022-08-17T01:26:47.726Z,77.79
2022-08-17T01:29:30.930Z,77.59
2022-08-17T01:32:19.683Z,77.96
2022-08-17T01:35:01.880Z,77.98
2022-08-17T01:37:50.684Z,77.96
2022-08-17T01:40:40.862Z,77.77
2022-08-17T01:43:32.688Z,77.89
2022-08-17T01:46:13.861Z,77.92
2022-08-17T01:49:03.650Z,77.79
2022-08-17T01:51:45.885Z,78.01
2022-08-17T01:54:34.671Z,78.16
2022-08-17T01:57:17.874Z,78.07
2022-08-17T02:00:06.631Z,78.19
2022-08-17T02:02:48.942Z,78.33
2022-08-17T02:05:36.759Z,78.54
2022-08-17T02:08:20.173Z,78.54
2022-08-17T02:11:11.405Z,78.44
2022-08-17T02:14:02.496Z,78.85
2022-08-17T02:16:51.629Z,78.54
2022-08-17T02:19:32.856Z,78.45
2022-08-17T02:22:20.643Z,78.17
2022-08-17T02:25:10.613Z,78.20
2022-08-17T02:27:58.806Z,78.15
2022-08-17T02:31:01.127Z,78.55
2022-08-17T02:34:00.586Z,78.38
2022-08-17T02:36:46.595Z,78.65
2022-08-17T02:39:34.579Z,78.84
2022-08-17T02:42:23.596Z,79.07
2022-08-17T02:45:14.789Z,78.69
2022-08-17T02:47:58.734Z,78.72
2022-08-17T02:50:46.791Z,78.52
2022-08-17T02:53:27.567Z,78.55
2022-08-17T02:56:21.579Z,78.30
2022-08-17T02:59:02.796Z,78.33
2022-08-17T03:01:50.662Z,78.25
2022-08-17T03:04:34.881Z,78.23
2022-08-17T03:07:24.540Z,78.03
2022-08-17T03:10:12.537Z,78.25
2022-08-17T03:13:08.576Z,78.09
2022-08-17T03:15:57.559Z,78.08
2022-08-17T03:18:38.754Z,78.10
2022-08-17T03:21:28.762Z,78.01
2022-08-17T03:24:10.395Z,78.12
2022-08-17T03:26:58.511Z,78.08
2022-08-17T03:29:39.823Z,78.17
2022-08-17T03:32:28.640Z,78.12
2022-08-17T03:35:09.726Z,78.09
2022-08-17T03:38:02.516Z,78.60
2022-08-17T03:40:58.439Z,78.36
2022-08-17T03:43:47.492Z,78.15
2022-08-17T03:46:52.547Z,78.54
2022-08-17T03:49:51.714Z,78.73
2022-08-17T03:52:56.599Z,79.21
2022-08-17T03:56:05.503Z,79.10
2022-08-17T03:58:46.486Z,79.37
2022-08-17T04:01:34.758Z,79.36
2022-08-17T04:04:15.478Z,79.67
2022-08-17T04:07:03.668Z,79.81
2022-08-17T04:09:44.476Z,79.82
2022-08-17T04:12:42.422Z,79.71
2022-08-17T04:15:30.447Z,79.83
2022-08-17T04:18:11.654Z,79.81
2022-08-17T04:20:59.456Z,79.69
2022-08-17T04:23:40.640Z,79.46
2022-08-17T04:26:52.457Z,79.40
2022-08-17T04:29:54.410Z,80.13
2022-08-17T04:33:03.837Z,80.16
2022-08-17T04:35:45.668Z,80.26
2022-08-17T04:38:37.413Z,80.28
2022-08-17T04:41:44.414Z,80.19
2022-08-17T04:44:37.695Z,80.29
2022-08-17T04:47:19.608Z,80.10
2022-08-17T04:50:09.402Z,80.13
2022-08-17T04:52:53.719Z,80.07
2022-08-17T04:55:41.394Z,80.12
2022-08-17T04:58:22.579Z,80.31
2022-08-17T05:01:12.484Z,80.05
2022-08-17T05:03:53.590Z,80.15
2022-08-17T05:06:41.380Z,79.97
2022-08-17T05:09:30.404Z,80.10
2022-08-17T05:12:18.616Z,79.97
2022-08-17T05:14:59.446Z,80.25
2022-08-17T05:17:48.566Z,79.99
2022-08-17T05:20:31.351Z,79.99
2022-08-17T05:23:23.345Z,80.02
2022-08-17T05:26:04.666Z,80.33
2022-08-17T05:28:56.953Z,80.06
2022-08-17T05:31:46.376Z,80.02
2022-08-17T05:34:36.678Z,80.00
2022-08-17T05:37:17.342Z,80.20
2022-08-17T05:40:05.374Z,79.59
2022-08-17T05:42:46.616Z,79.89
2022-08-17T05:45:54.916Z,79.83
2022-08-17T05:48:40.094Z,79.97
2022-08-17T05:51:39.314Z,79.88
2022-08-17T05:54:43.308Z,79.81
2022-08-17T05:57:53.524Z,79.92
2022-08-17T06:00:39.318Z,79.96
2022-08-17T06:03:49.276Z,80.23
2022-08-17T06:06:44.873Z,79.97
2022-08-17T06:09:43.274Z,79.97
2022-08-17T06:12:51.439Z,80.16
2022-08-17T06:15:49.287Z,80.08
2022-08-17T06:18:33.496Z,80.00
2022-08-17T06:21:26.312Z,80.05
2022-08-17T06:24:22.467Z,79.78
2022-08-17T06:27:16.281Z,79.83
2022-08-17T06:30:05.504Z,79.75
2022-08-17T06:32:59.270Z,79.85
2022-08-17T06:35:54.233Z,80.30
2022-08-17T06:39:00.254Z,80.23
2022-08-17T06:42:01.250Z,80.39
2022-08-17T06:44:51.304Z,80.24
2022-08-17T06:47:45.227Z,80.19
2022-08-17T06:50:35.133Z,80.17
2022-08-17T06:53:31.226Z,80.30
2022-08-17T06:56:22.323Z,80.16
2022-08-17T06:59:13.410Z,80.27
2022-08-17T07:01:56.217Z,80.32
2022-08-17T07:04:38.478Z,80.48
2022-08-17T07:07:45.195Z,80.34
2022-08-17T07:10:28.876Z,79.74
2022-08-17T07:13:28.218Z,79.34
2022-08-17T07:16:20.424Z,79.18
2022-08-17T07:19:11.325Z,79.39
2022-08-17T07:21:58.757Z,79.06
2022-08-17T07:24:51.187Z,79.12
2022-08-17T07:27:44.494Z,78.29
2022-08-17T07:30:45.528Z,78.54
2022-08-17T07:33:41.016Z,78.12
2022-08-17T07:36:33.166Z,77.91
2022-08-17T07:39:28.136Z,78.28
2022-08-17T07:42:18.158Z,78.08
2022-08-17T07:45:26.157Z,78.07
2022-08-17T07:48:28.179Z,78.07
2022-08-17T07:51:32.238Z,78.20
2022-08-17T07:54:31.318Z,78.24
2022-08-17T07:57:38.141Z,78.34
2022-08-17T08:00:33.142Z,78.50
2022-08-17T08:03:32.077Z,78.45
2022-08-17T08:06:29.253Z,78.25
2022-08-17T08:09:30.573Z,78.25
2022-08-17T08:12:40.145Z,77.47
2022-08-17T08:15:25.693Z,77.47
2022-08-17T08:18:16.095Z,77.04
2022-08-17T08:21:24.985Z,76.43
2022-08-17T08:24:23.178Z,77.08
2022-08-17T08:27:21.325Z,76.74
2022-08-17T08:30:12.095Z,76.47
2022-08-17T08:33:32.444Z,76.04
2022-08-17T08:36:56.928Z,75.54
2022-08-17T08:39:54.661Z,75.75
2022-08-17T08:42:45.262Z,75.64
2022-08-17T08:45:40.274Z,75.01
2022-08-17T08:48:56.895Z,71.35
2022-08-17T08:51:51.763Z,68.94
2022-08-17T08:54:51.046Z,68.55
2022-08-17T08:57:39.564Z,66.29
2022-08-17T09:00:32.046Z,67.23
2022-08-17T09:03:51.539Z,66.70
2022-08-17T09:06:52.494Z,62.34
2022-08-17T09:09:50.074Z,59.23
2022-08-17T09:12:56.014Z,56.51
2022-08-17T09:15:50.031Z,54.45
2022-08-17T09:19:00.179Z,51.50
2022-08-17T09:21:49.042Z,53.20
2022-08-17T09:24:36.208Z,52.60
2022-08-17T09:27:28.016Z,54.66
2022-08-17T09:30:14.216Z,57.53
2022-08-17T09:33:06.043Z,59.27
2022-08-17T09:35:52.217Z,61.04
2022-08-17T09:38:48.006Z,62.40
2022-08-17T09:41:36.189Z,63.54
2022-08-17T09:44:34.118Z,64.81
2022-08-17T09:47:23.180Z,65.48
2022-08-17T09:50:18.175Z,66.38
2022-08-17T09:53:20.214Z,67.12
2022-08-17T09:56:25.047Z,66.76
2022-08-17T09:59:24.193Z,66.56
2022-08-17T10:02:33.957Z,67.31
2022-08-17T10:05:21.553Z,66.86
2022-08-17T10:08:17.073Z,66.73
2022-08-17T10:11:12.157Z,68.06
2022-08-17T10:14:37.583Z,68.09
2022-08-17T10:17:28.372Z,68.07
2022-08-17T10:20:19.947Z,69.47
2022-08-17T10:23:24.349Z,69.74
2022-08-17T10:26:20.948Z,69.73
2022-08-17T10:29:12.835Z,69.79
2022-08-17T10:32:06.039Z,69.80
2022-08-17T10:35:16.114Z,69.28
2022-08-17T10:38:15.913Z,66.99
2022-08-17T10:41:08.908Z,66.51
2022-08-17T10:44:38.859Z,66.58
2022-08-17T10:47:16.025Z,66.86
2022-08-17T10:49:59.115Z,67.46
2022-08-17T10:52:58.970Z,67.81
2022-08-17T10:55:41.148Z,69.16
2022-08-17T10:58:30.914Z,69.34
2022-08-17T11:01:12.767Z,69.01
2022-08-17T11:04:04.881Z,70.03
2022-08-17T11:07:10.100Z,70.68
2022-08-17T11:10:19.923Z,71.59
2022-08-17T11:13:20.863Z,72.42
2022-08-17T11:16:23.079Z,72.67
2022-08-17T11:19:39.850Z,73.59
2022-08-17T11:23:08.878Z,74.21
2022-08-17T11:26:04.086Z,74.50
2022-08-17T11:28:55.825Z,74.21
2022-08-17T11:31:54.874Z,73.74
2022-08-17T11:34:43.029Z,73.83
2022-08-17T11:37:55.846Z,73.46
2022-08-17T11:40:48.199Z,74.71
2022-08-17T11:44:02.065Z,74.02
2022-08-17T11:47:16.434Z,74.03
2022-08-17T11:50:58.839Z,73.68
2022-08-17T11:54:32.273Z,73.96
2022-08-17T11:57:57.826Z,75.24
2022-08-17T12:01:02.984Z,75.45
2022-08-17T12:03:56.001Z,76.01
2022-08-17T12:06:50.208Z,75.92
2022-08-17T12:09:40.867Z,75.86
2022-08-17T12:12:29.780Z,75.83
2022-08-17T12:15:19.899Z,75.91
2022-08-17T12:18:09.770Z,76.29
2022-08-17T12:21:05.835Z,76.27
2022-08-17T12:24:03.780Z,76.45
2022-08-17T12:26:46.964Z,76.31
2022-08-17T12:29:39.149Z,75.91
2022-08-17T12:32:25.451Z,75.56
2022-08-17T12:35:27.768Z,75.63
2022-08-17T12:38:26.854Z,75.67
2022-08-17T12:41:35.759Z,74.58
2022-08-17T12:44:23.242Z,74.45
2022-08-17T12:47:21.588Z,73.57
2022-08-17T12:50:29.259Z,73.64
2022-08-17T12:53:19.829Z,73.67
2022-08-17T12:56:03.229Z,74.02
2022-08-17T12:59:00.751Z,74.39
2022-08-17T13:01:48.059Z,74.88
2022-08-17T13:04:36.692Z,74.48
2022-08-17T13:07:26.848Z,74.22
2022-08-17T13:10:08.735Z,74.30
2022-08-17T13:12:57.702Z,74.13
2022-08-17T13:15:50.224Z,73.59
2022-08-17T13:18:48.682Z,73.93
2022-08-17T13:21:38.378Z,73.78
2022-08-17T13:24:27.705Z,74.15
2022-08-17T13:27:21.732Z,73.95
2022-08-17T13:30:12.704Z,73.91
2022-08-17T13:33:04.673Z,74.38
2022-08-17T13:35:51.955Z,74.73
2022-08-17T13:38:52.768Z,73.77
2022-08-17T13:41:43.893Z,73.87
2022-08-17T13:44:38.852Z,73.24
2022-08-17T13:47:26.640Z,73.60
2022-08-17T13:50:28.645Z,72.88
2022-08-17T13:53:11.266Z,72.84
2022-08-17T13:56:01.639Z,72.82
2022-08-17T13:58:47.163Z,72.41
2022-08-17T14:01:41.685Z,72.45
2022-08-17T14:04:31.640Z,72.54
2022-08-17T14:07:38.831Z,71.96
2022-08-17T14:10:23.602Z,71.85
2022-08-17T14:13:05.695Z,71.72
2022-08-17T14:15:56.811Z,71.89
2022-08-17T14:18:56.605Z,70.79
2022-08-17T14:21:44.618Z,70.57
2022-08-17T14:24:38.949Z,70.66
2022-08-17T14:27:24.586Z,70.13
2022-08-17T14:30:14.577Z,70.13
2022-08-17T14:33:04.609Z,70.01
2022-08-17T14:35:47.315Z,70.58
2022-08-17T14:38:34.703Z,70.22
2022-08-17T14:41:23.554Z,70.42
2022-08-17T14:44:04.572Z,69.55
2022-08-17T14:46:52.958Z,69.53
2022-08-17T14:49:37.657Z,69.72
2022-08-17T14:52:27.785Z,69.50
2022-08-17T14:55:08.584Z,70.12
2022-08-17T14:57:56.812Z,70.15
2022-08-17T15:00:38.539Z,69.82
2022-08-17T15:03:26.743Z,69.85
2022-08-17T15:06:10.563Z,69.43
2022-08-17T15:08:58.738Z,69.11
2022-08-17T15:11:41.660Z,69.35
2022-08-17T15:14:29.819Z,69.50
2022-08-17T15:17:12.531Z,69.55
2022-08-17T15:20:00.733Z,69.36
2022-08-17T15:22:44.486Z,70.08
2022-08-17T15:25:34.524Z,70.33
2022-08-17T15:28:23.509Z,70.58
2022-08-17T15:31:13.620Z,70.63
2022-08-17T15:33:55.043Z,71.50
2022-08-17T15:36:49.115Z,71.38
2022-08-17T15:39:32.841Z,71.31
2022-08-17T15:42:21.464Z,71.47
2022-08-17T15:45:02.675Z,70.88
2022-08-17T15:47:50.699Z,70.27
2022-08-17T15:50:31.692Z,70.82
2022-08-17T15:53:19.488Z,70.96
2022-08-17T15:56:03.336Z,71.77
2022-08-17T15:58:54.641Z,72.20
2022-08-17T16:03:14.150Z,72.33
2022-08-17T16:04:40.214Z,71.99
2022-08-17T16:07:32.163Z,71.87
2022-08-17T16:10:18.871Z,71.45
2022-08-17T16:13:17.870Z,71.97
2022-08-17T16:16:00.466Z,72.05
2022-08-17T16:18:42.289Z,71.96
2022-08-17T16:21:42.458Z,72.15
2022-08-17T16:24:30.419Z,71.95
2022-08-17T16:27:12.759Z,71.84
2022-08-17T16:30:02.441Z,71.24
2022-08-17T16:32:43.697Z,72.13
2022-08-17T16:35:33.422Z,71.46
2022-08-17T16:38:14.636Z,71.48
2022-08-17T16:41:02.384Z,71.64
2022-08-17T16:43:45.770Z,71.66
2022-08-17T16:46:35.600Z,71.83
2022-08-17T16:49:35.425Z,72.22
2022-08-17T16:52:32.832Z,71.89
2022-08-17T16:55:17.620Z,72.10
2022-08-17T16:58:05.372Z,71.93
2022-08-17T17:00:56.438Z,71.87
2022-08-17T17:03:54.063Z,71.77
2022-08-17T17:06:46.381Z,72.00
2022-08-17T17:09:32.801Z,72.01
2022-08-17T17:12:59.515Z,71.68
2022-08-17T17:15:54.353Z,72.07
2022-08-17T17:18:50.340Z,72.18
2022-08-17T17:21:49.480Z,71.68
2022-08-17T17:24:49.964Z,72.42
2022-08-17T17:27:44.376Z,72.36
2022-08-17T17:30:37.337Z,72.87
2022-08-17T17:33:23.479Z,72.84
2022-08-17T17:36:21.401Z,73.03
2022-08-17T17:39:09.516Z,73.16
2022-08-17T17:42:01.333Z,73.28
2022-08-17T17:44:54.410Z,73.50
2022-08-17T17:47:43.581Z,73.41
2022-08-17T17:50:26.477Z,73.17
2022-08-17T17:53:26.130Z,73.60
2022-08-17T17:56:43.047Z,73.75
2022-08-17T17:59:43.913Z,73.93
2022-08-17T18:02:51.652Z,74.04
2022-08-17T18:06:04.266Z,73.73
2022-08-17T18:09:12.309Z,74.02
2022-08-17T18:12:27.273Z,74.15
2022-08-17T18:15:29.513Z,74.26
2022-08-17T18:18:44.382Z,74.09
2022-08-17T18:21:30.267Z,74.44
2022-08-17T18:24:22.242Z,74.39
2022-08-17T18:27:12.315Z,74.12
2022-08-17T18:30:07.117Z,74.00
2022-08-17T18:32:57.278Z,74.12
2022-08-17T18:35:40.456Z,74.24
2022-08-17T18:38:35.232Z,74.41
2022-08-17T18:41:30.556Z,74.33
2022-08-17T18:44:30.296Z,74.20
2022-08-17T18:47:21.532Z,74.16
2022-08-17T18:50:32.299Z,74.32
2022-08-17T18:53:41.206Z,74.30
2022-08-17T18:56:38.281Z,74.66
2022-08-17T18:59:32.509Z,74.89
2022-08-17T19:05:42.767Z,74.96
2022-08-17T19:08:41.311Z,74.97
2022-08-17T19:11:31.418Z,75.06
2022-08-17T19:14:24.268Z,75.34
2022-08-17T19:17:19.189Z,75.15
2022-08-17T19:20:15.120Z,75.31
2022-08-17T19:23:11.268Z,75.50
2022-08-17T19:26:05.825Z,75.83
2022-08-17T19:29:10.247Z,75.86
2022-08-17T19:32:02.178Z,75.72
2022-08-17T19:34:52.144Z,75.96
2022-08-17T19:37:45.429Z,75.91
2022-08-17T19:40:52.136Z,75.85
2022-08-17T19:43:57.237Z,76.15
2022-08-17T19:46:56.382Z,76.14
2022-08-17T19:50:00.578Z,76.32
2022-08-17T19:52:55.259Z,76.25
2022-08-17T19:55:55.617Z,76.52
2022-08-17T19:59:02.225Z,76.70
2022-08-17T20:01:50.379Z,76.84
2022-08-17T20:04:50.230Z,76.63
2022-08-17T20:07:51.465Z,76.73
2022-08-17T20:10:54.888Z,77.00
2022-08-17T20:13:55.134Z,77.16
2022-08-17T20:16:43.087Z,77.22
2022-08-17T20:19:31.567Z,77.28
2022-08-17T20:22:26.059Z,77.08
2022-08-17T20:25:15.486Z,77.35
2022-08-17T20:28:09.165Z,77.29
2022-08-17T20:30:51.492Z,77.59
2022-08-17T20:33:43.068Z,77.54
2022-08-17T20:36:35.174Z,77.70
2022-08-17T20:39:38.290Z,77.81
2022-08-17T20:42:38.051Z,77.73
2022-08-17T20:46:00.498Z,77.86
2022-08-17T20:48:46.598Z,77.83
2022-08-17T20:51:32.626Z,77.82
2022-08-17T20:54:38.002Z,77.96
2022-08-17T20:57:55.041Z,77.93
2022-08-17T21:00:58.182Z,77.90
2022-08-17T21:03:58.223Z,77.81
2022-08-17T21:06:38.998Z,78.13
2022-08-17T21:09:36.162Z,77.93
2022-08-17T21:12:24.001Z,78.07
2022-08-17T21:15:25.166Z,77.90
2022-08-17T21:18:21.039Z,77.93
2022-08-17T21:21:20.986Z,77.67
2022-08-17T21:24:20.968Z,77.57
2022-08-17T21:27:19.071Z,77.53
2022-08-17T21:30:44.601Z,77.48
2022-08-17T21:33:38.004Z,77.26
2022-08-17T21:36:35.286Z,77.61
2022-08-17T21:39:21.368Z,77.61
2022-08-17T21:42:13.961Z,77.51
2022-08-17T21:45:04.938Z,77.32
2022-08-17T21:47:57.956Z,77.29
2022-08-17T21:50:41.750Z,77.47
2022-08-17T21:53:34.953Z,77.56
2022-08-17T21:56:26.949Z,77.84
2022-08-17T21:59:32.143Z,77.54
2022-08-17T22:02:15.910Z,77.64
2022-08-17T22:05:09.113Z,77.78
2022-08-17T22:07:53.952Z,77.64
2022-08-17T22:10:46.253Z,77.34
2022-08-17T22:13:40.882Z,77.73
2022-08-17T22:16:29.857Z,77.96
2022-08-17T22:19:18.878Z,78.12
2022-08-17T22:22:11.890Z,77.76
2022-08-17T22:25:06.095Z,77.52
2022-08-17T22:28:03.102Z,77.37
2022-08-17T22:30:45.897Z,77.74
2022-08-17T22:33:43.086Z,77.57
2022-08-17T22:36:35.869Z,77.52
2022-08-17T22:39:48.907Z,77.41
2022-08-17T22:42:30.079Z,77.84
2022-08-17T22:45:17.905Z,77.25
2022-08-17T22:48:03.091Z,77.34
2022-08-17T22:50:50.861Z,77.31
2022-08-17T22:53:56.871Z,77.52
2022-08-17T22:57:12.863Z,77.52
2022-08-17T23:00:04.010Z,77.73
2022-08-17T23:03:12.979Z,77.60
2022-08-17T23:06:15.864Z,77.02
2022-08-17T23:09:04.876Z,77.43
2022-08-17T23:11:52.048Z,77.07
2022-08-17T23:14:45.892Z,77.24
2022-08-17T23:17:48.983Z,77.30
2022-08-17T23:20:37.848Z,77.17
2022-08-17T23:23:23.694Z,77.31
2022-08-17T23:26:16.841Z,77.25
2022-08-17T23:29:04.339Z,77.11
2022-08-17T23:31:51.814Z,76.90
2022-08-17T23:34:34.009Z,77.12
2022-08-17T23:37:21.911Z,76.75
2022-08-17T23:40:09.883Z,76.59
2022-08-17T23:42:52.205Z,76.35
2022-08-17T23:45:42.825Z,76.56
2022-08-17T23:48:35.556Z,76.08
2022-08-17T23:51:21.784Z,76.11
2022-08-17T23:54:12.809Z,75.96
2022-08-17T23:56:54.076Z,76.14
2022-08-17T23:59:43.775Z,75.83
